Time;durP1;ratioP1;P1;durP2;ratioP2;P2;SDS_P1;SDS_P2;PMS_P1;PMS_P2;Temp;Humidity;BMP_temperature;BMP_pressure;BME280_temperature;BME280_humidity;BME280_pressure;Samples;Min_cycle;Max_cycle;Signal;HPM_P1;HPM_P2
2020/10/29 00:00:15;;;;;;;1.95;1.3;;;;;;;9.26;100;95268.84;;;;
2020/10/29 00:01:15;;;;;;;1.95;1.3;;;;;;;9.26;100;95268.84;;;;
2020/10/29 00:02:16;;;;;;;1.95;1.3;;;;;;;9.26;100;95268.84;;;;
2020/10/29 00:03:16;;;;;;;1.95;1.3;;;;;;;9.26;100;95268.84;;;;
2020/10/29 00:04:17;;;;;;;1.95;1.3;;;;;;;9.26;100;95268.84;;;;
2020/10/29 00:05:17;;;;;;;1.95;1.3;;;;;;;9.26;100;95268.84;;;;
2020/10/29 00:06:18;;;;;;;1.95;1.3;;;;;;;9.26;100;95268.84;;;;
2020/10/29 00:07:18;;;;;;;1.95;1.3;;;;;;;9.26;100;95268.84;;;;
2020/10/29 00:08:19;;;;;;;1.95;1.3;;;;;;;9.26;100;95268.84;;;;
2020/10/29 00:09:19;;;;;;;1.95;1.3;;;;;;;9.26;100;95268.84;;;;
2020/10/29 00:10:20;;;;;;;1.95;1.3;;;;;;;9.26;100;95268.84;;;;
2020/10/29 00:11:20;;;;;;;3.299999;1.5;;;;;;;9.25;100;95264.9;;;;
2020/10/29 00:12:21;;;;;;;3.299999;1.5;;;;;;;9.25;100;95264.9;;;;
2020/10/29 00:13:22;;;;;;;3.299999;1.5;;;;;;;9.25;100;95264.9;;;;
2020/10/29 00:14:22;;;;;;;3.299999;1.5;;;;;;;9.25;100;95264.9;;;;
2020/10/29 00:15:23;;;;;;;3.299999;1.5;;;;;;;9.25;100;95264.9;;;;
2020/10/29 00:16:23;;;;;;;3.299999;1.5;;;;;;;9.25;100;95264.9;;;;
2020/10/29 00:17:24;;;;;;;3.299999;1.5;;;;;;;9.25;100;95264.9;;;;
2020/10/29 00:18:24;;;;;;;3.299999;1.5;;;;;;;9.25;100;95264.9;;;;
2020/10/29 00:19:25;;;;;;;3.299999;1.5;;;;;;;9.25;100;95264.9;;;;
2020/10/29 00:20:25;;;;;;;3.299999;1.5;;;;;;;9.25;100;95264.9;;;;
2020/10/29 00:21:26;;;;;;;2.1;1.4;;;;;;;9.17;100;95276.93;;;;
2020/10/29 00:22:27;;;;;;;2.1;1.4;;;;;;;9.17;100;95276.93;;;;
2020/10/29 00:23:27;;;;;;;2.1;1.4;;;;;;;9.17;100;95276.93;;;;
2020/10/29 00:24:28;;;;;;;2.1;1.4;;;;;;;9.17;100;95276.93;;;;
2020/10/29 00:25:28;;;;;;;2.1;1.4;;;;;;;9.17;100;95276.93;;;;
2020/10/29 00:26:29;;;;;;;2.1;1.4;;;;;;;9.17;100;95276.93;;;;
2020/10/29 00:27:29;;;;;;;2.1;1.4;;;;;;;9.17;100;95276.93;;;;
2020/10/29 00:28:30;;;;;;;2.1;1.4;;;;;;;9.17;100;95276.93;;;;
2020/10/29 00:29:30;;;;;;;2.1;1.4;;;;;;;9.17;100;95276.93;;;;
2020/10/29 00:30:31;;;;;;;2.1;1.4;;;;;;;9.17;100;95276.93;;;;
2020/10/29 00:31:32;;;;;;;2.1;1.4;;;;;;;9.17;100;95276.93;;;;
2020/10/29 00:32:32;;;;;;;1.8;1.35;;;;;;;9.16;100;95271.75;;;;
2020/10/29 00:33:33;;;;;;;1.8;1.35;;;;;;;9.16;100;95271.75;;;;
2020/10/29 00:34:33;;;;;;;1.8;1.35;;;;;;;9.16;100;95271.75;;;;
2020/10/29 00:35:34;;;;;;;1.8;1.35;;;;;;;9.16;100;95271.75;;;;
2020/10/29 00:36:34;;;;;;;1.8;1.35;;;;;;;9.16;100;95271.75;;;;
2020/10/29 00:37:35;;;;;;;1.8;1.35;;;;;;;9.16;100;95271.75;;;;
2020/10/29 00:38:35;;;;;;;1.8;1.35;;;;;;;9.16;100;95271.75;;;;
2020/10/29 00:39:36;;;;;;;1.8;1.35;;;;;;;9.16;100;95271.75;;;;
2020/10/29 00:40:36;;;;;;;1.8;1.35;;;;;;;9.16;100;95271.75;;;;
2020/10/29 00:41:37;;;;;;;1.8;1.35;;;;;;;9.16;100;95271.75;;;;
2020/10/29 00:42:37;;;;;;;3.4;1.5;;;;;;;9.09;100;95284.48;;;;
2020/10/29 00:43:38;;;;;;;3.4;1.5;;;;;;;9.09;100;95284.48;;;;
2020/10/29 00:44:38;;;;;;;3.4;1.5;;;;;;;9.09;100;95284.48;;;;
2020/10/29 00:45:39;;;;;;;3.4;1.5;;;;;;;9.09;100;95284.48;;;;
2020/10/29 00:46:39;;;;;;;3.4;1.5;;;;;;;9.09;100;95284.48;;;;
2020/10/29 00:47:40;;;;;;;3.4;1.5;;;;;;;9.09;100;95284.48;;;;
2020/10/29 00:48:40;;;;;;;3.4;1.5;;;;;;;9.09;100;95284.48;;;;
2020/10/29 00:49:41;;;;;;;3.4;1.5;;;;;;;9.09;100;95284.48;;;;
2020/10/29 00:50:41;;;;;;;3.4;1.5;;;;;;;9.09;100;95284.48;;;;
2020/10/29 00:51:42;;;;;;;3.4;1.5;;;;;;;9.09;100;95284.48;;;;
2020/10/29 00:52:42;;;;;;;3.4;1.5;;;;;;;9.09;100;95284.48;;;;
2020/10/29 00:53:43;;;;;;;3.2;1.5;;;;;;;9.09;100;95290.3;;;;
2020/10/29 00:54:43;;;;;;;3.2;1.5;;;;;;;9.09;100;95290.3;;;;
2020/10/29 00:55:44;;;;;;;3.2;1.5;;;;;;;9.09;100;95290.3;;;;
2020/10/29 00:56:46;;;;;;;3.2;1.5;;;;;;;9.09;100;95290.3;;;;
2020/10/29 00:57:46;;;;;;;3.2;1.5;;;;;;;9.09;100;95290.3;;;;
2020/10/29 00:58:47;;;;;;;3.2;1.5;;;;;;;9.09;100;95290.3;;;;
2020/10/29 00:59:47;;;;;;;3.2;1.5;;;;;;;9.09;100;95290.3;;;;
2020/10/29 01:00:47;;;;;;;3.2;1.5;;;;;;;9.09;100;95290.3;;;;
2020/10/29 01:01:48;;;;;;;3.2;1.5;;;;;;;9.09;100;95290.3;;;;
2020/10/29 01:02:48;;;;;;;3.2;1.5;;;;;;;9.09;100;95290.3;;;;
2020/10/29 01:03:49;;;;;;;2.35;1.85;;;;;;;9.08;100;95287.31;;;;
2020/10/29 01:04:49;;;;;;;2.35;1.85;;;;;;;9.08;100;95287.31;;;;
2020/10/29 01:05:50;;;;;;;2.35;1.85;;;;;;;9.08;100;95287.31;;;;
2020/10/29 01:06:50;;;;;;;2.35;1.85;;;;;;;9.08;100;95287.31;;;;
2020/10/29 01:07:51;;;;;;;2.35;1.85;;;;;;;9.08;100;95287.31;;;;
2020/10/29 01:08:51;;;;;;;2.35;1.85;;;;;;;9.08;100;95287.31;;;;
2020/10/29 01:09:52;;;;;;;2.35;1.85;;;;;;;9.08;100;95287.31;;;;
2020/10/29 01:10:52;;;;;;;2.35;1.85;;;;;;;9.08;100;95287.31;;;;
2020/10/29 01:11:53;;;;;;;2.35;1.85;;;;;;;9.08;100;95287.31;;;;
2020/10/29 01:12:54;;;;;;;2.35;1.85;;;;;;;9.08;100;95287.31;;;;
2020/10/29 01:13:54;;;;;;;2.35;1.85;;;;;;;9.08;100;95287.31;;;;
2020/10/29 01:14:55;;;;;;;3.2;1.7;;;;;;;9.13;100;95271.7;;;;
2020/10/29 01:15:55;;;;;;;3.2;1.7;;;;;;;9.13;100;95271.7;;;;
2020/10/29 01:16:56;;;;;;;3.2;1.7;;;;;;;9.13;100;95271.7;;;;
2020/10/29 01:17:56;;;;;;;3.2;1.7;;;;;;;9.13;100;95271.7;;;;
2020/10/29 01:18:57;;;;;;;3.2;1.7;;;;;;;9.13;100;95271.7;;;;
2020/10/29 01:19:57;;;;;;;3.2;1.7;;;;;;;9.13;100;95271.7;;;;
2020/10/29 01:20:58;;;;;;;3.2;1.7;;;;;;;9.13;100;95271.7;;;;
2020/10/29 01:21:58;;;;;;;3.2;1.7;;;;;;;9.13;100;95271.7;;;;
2020/10/29 01:22:59;;;;;;;3.2;1.7;;;;;;;9.13;100;95271.7;;;;
2020/10/29 01:23:59;;;;;;;3.2;1.7;;;;;;;9.13;100;95271.7;;;;
2020/10/29 01:25:00;;;;;;;3.2;1.7;;;;;;;9.13;100;95271.7;;;;
2020/10/29 01:26:00;;;;;;;3.45;1.4;;;;;;;9.13;100;95240.31;;;;
2020/10/29 01:27:01;;;;;;;3.45;1.4;;;;;;;9.13;100;95240.31;;;;
2020/10/29 01:28:01;;;;;;;3.45;1.4;;;;;;;9.13;100;95240.31;;;;
2020/10/29 01:29:02;;;;;;;3.45;1.4;;;;;;;9.13;100;95240.31;;;;
2020/10/29 01:30:03;;;;;;;3.45;1.4;;;;;;;9.13;100;95240.31;;;;
2020/10/29 01:31:03;;;;;;;3.45;1.4;;;;;;;9.13;100;95240.31;;;;
2020/10/29 01:32:04;;;;;;;3.45;1.4;;;;;;;9.13;100;95240.31;;;;
2020/10/29 01:33:04;;;;;;;3.45;1.4;;;;;;;9.13;100;95240.31;;;;
2020/10/29 01:34:05;;;;;;;3.45;1.4;;;;;;;9.13;100;95240.31;;;;
2020/10/29 01:35:06;;;;;;;3.45;1.4;;;;;;;9.13;100;95240.31;;;;
2020/10/29 01:36:07;;;;;;;2;1.4;;;;;;;9.18;100;95229.67;;;;
2020/10/29 01:37:07;;;;;;;2;1.4;;;;;;;9.18;100;95229.67;;;;
2020/10/29 01:38:08;;;;;;;2;1.4;;;;;;;9.18;100;95229.67;;;;
2020/10/29 01:39:08;;;;;;;2;1.4;;;;;;;9.18;100;95229.67;;;;
2020/10/29 01:40:09;;;;;;;2;1.4;;;;;;;9.18;100;95229.67;;;;
2020/10/29 01:41:10;;;;;;;2;1.4;;;;;;;9.18;100;95229.67;;;;
2020/10/29 01:42:11;;;;;;;2;1.4;;;;;;;9.18;100;95229.67;;;;
2020/10/29 01:43:11;;;;;;;2;1.4;;;;;;;9.18;100;95229.67;;;;
2020/10/29 01:44:12;;;;;;;2;1.4;;;;;;;9.18;100;95229.67;;;;
2020/10/29 01:45:12;;;;;;;2;1.4;;;;;;;9.18;100;95229.67;;;;
2020/10/29 01:46:14;;;;;;;2;1.4;;;;;;;9.18;100;95229.67;;;;
2020/10/29 01:47:15;;;;;;;2.9;1.4;;;;;;;9.16;100;95219.23;;;;
2020/10/29 01:48:15;;;;;;;2.9;1.4;;;;;;;9.16;100;95219.23;;;;
2020/10/29 01:49:16;;;;;;;2.9;1.4;;;;;;;9.16;100;95219.23;;;;
2020/10/29 01:50:16;;;;;;;2.9;1.4;;;;;;;9.16;100;95219.23;;;;
2020/10/29 01:51:17;;;;;;;2.9;1.4;;;;;;;9.16;100;95219.23;;;;
2020/10/29 01:52:18;;;;;;;2.9;1.4;;;;;;;9.16;100;95219.23;;;;
2020/10/29 01:53:18;;;;;;;2.9;1.4;;;;;;;9.16;100;95219.23;;;;
2020/10/29 01:54:19;;;;;;;2.9;1.4;;;;;;;9.16;100;95219.23;;;;
2020/10/29 01:55:19;;;;;;;2.9;1.4;;;;;;;9.16;100;95219.23;;;;
2020/10/29 01:56:20;;;;;;;2.9;1.4;;;;;;;9.16;100;95219.23;;;;
2020/10/29 01:57:20;;;;;;;3.55;1.6;;;;;;;9.2;100;95208.2;;;;
2020/10/29 01:58:21;;;;;;;3.55;1.6;;;;;;;9.2;100;95208.2;;;;
2020/10/29 01:59:21;;;;;;;3.55;1.6;;;;;;;9.2;100;95208.2;;;;
2020/10/29 02:00:22;;;;;;;3.55;1.6;;;;;;;9.2;100;95208.2;;;;
2020/10/29 02:01:24;;;;;;;3.55;1.6;;;;;;;9.2;100;95208.2;;;;
2020/10/29 02:02:25;;;;;;;3.55;1.6;;;;;;;9.2;100;95208.2;;;;
2020/10/29 02:03:25;;;;;;;3.55;1.6;;;;;;;9.2;100;95208.2;;;;
2020/10/29 02:04:26;;;;;;;3.55;1.6;;;;;;;9.2;100;95208.2;;;;
2020/10/29 02:05:26;;;;;;;3.55;1.6;;;;;;;9.2;100;95208.2;;;;
2020/10/29 02:06:27;;;;;;;3.55;1.6;;;;;;;9.2;100;95208.2;;;;
2020/10/29 02:07:27;;;;;;;3.55;1.6;;;;;;;9.2;100;95208.2;;;;
2020/10/29 02:08:32;;;;;;;2.1;1.5;;;;;;;9.21;100;95180.33;;;;
2020/10/29 02:09:34;;;;;;;2.1;1.5;;;;;;;9.21;100;95180.33;;;;
2020/10/29 02:10:34;;;;;;;2.1;1.5;;;;;;;9.21;100;95180.33;;;;
2020/10/29 02:11:35;;;;;;;2.1;1.5;;;;;;;9.21;100;95180.33;;;;
2020/10/29 02:12:35;;;;;;;2.1;1.5;;;;;;;9.21;100;95180.33;;;;
2020/10/29 02:13:36;;;;;;;2.1;1.5;;;;;;;9.21;100;95180.33;;;;
2020/10/29 02:14:37;;;;;;;2.1;1.5;;;;;;;9.21;100;95180.33;;;;
2020/10/29 02:15:37;;;;;;;2.1;1.5;;;;;;;9.21;100;95180.33;;;;
2020/10/29 02:16:38;;;;;;;2.1;1.5;;;;;;;9.21;100;95180.33;;;;
2020/10/29 02:17:39;;;;;;;2.1;1.5;;;;;;;9.21;100;95180.33;;;;
2020/10/29 02:18:40;;;;;;;2.7;1.55;;;;;;;9.23;100;95167.85;;;;
2020/10/29 02:19:40;;;;;;;2.7;1.55;;;;;;;9.23;100;95167.85;;;;
2020/10/29 02:20:41;;;;;;;2.7;1.55;;;;;;;9.23;100;95167.85;;;;
2020/10/29 02:21:42;;;;;;;2.7;1.55;;;;;;;9.23;100;95167.85;;;;
2020/10/29 02:22:42;;;;;;;2.7;1.55;;;;;;;9.23;100;95167.85;;;;
2020/10/29 02:23:45;;;;;;;2.7;1.55;;;;;;;9.23;100;95167.85;;;;
2020/10/29 02:24:45;;;;;;;2.7;1.55;;;;;;;9.23;100;95167.85;;;;
2020/10/29 02:25:46;;;;;;;2.7;1.55;;;;;;;9.23;100;95167.85;;;;
2020/10/29 02:26:46;;;;;;;2.7;1.55;;;;;;;9.23;100;95167.85;;;;
2020/10/29 02:27:47;;;;;;;2.7;1.55;;;;;;;9.23;100;95167.85;;;;
2020/10/29 02:28:48;;;;;;;2.7;1.55;;;;;;;9.23;100;95167.85;;;;
2020/10/29 02:29:48;;;;;;;2.15;1.2;;;;;;;9.19;100;95160.36;;;;
2020/10/29 02:30:49;;;;;;;2.15;1.2;;;;;;;9.19;100;95160.36;;;;
2020/10/29 02:31:51;;;;;;;2.15;1.2;;;;;;;9.19;100;95160.36;;;;
2020/10/29 02:32:51;;;;;;;2.15;1.2;;;;;;;9.19;100;95160.36;;;;
2020/10/29 02:33:52;;;;;;;2.15;1.2;;;;;;;9.19;100;95160.36;;;;
2020/10/29 02:34:52;;;;;;;2.15;1.2;;;;;;;9.19;100;95160.36;;;;
2020/10/29 02:35:53;;;;;;;2.15;1.2;;;;;;;9.19;100;95160.36;;;;
2020/10/29 02:36:53;;;;;;;2.15;1.2;;;;;;;9.19;100;95160.36;;;;
2020/10/29 02:37:54;;;;;;;2.15;1.2;;;;;;;9.19;100;95160.36;;;;
2020/10/29 02:38:54;;;;;;;2.15;1.2;;;;;;;9.19;100;95160.36;;;;
2020/10/29 02:39:55;;;;;;;1.3;1.2;;;;;;;9.25;100;95159.01;;;;
2020/10/29 02:40:55;;;;;;;1.3;1.2;;;;;;;9.25;100;95159.01;;;;
2020/10/29 02:41:56;;;;;;;1.3;1.2;;;;;;;9.25;100;95159.01;;;;
2020/10/29 02:42:58;;;;;;;1.3;1.2;;;;;;;9.25;100;95159.01;;;;
2020/10/29 02:43:58;;;;;;;1.3;1.2;;;;;;;9.25;100;95159.01;;;;
2020/10/29 02:44:59;;;;;;;1.3;1.2;;;;;;;9.25;100;95159.01;;;;
2020/10/29 02:46:01;;;;;;;1.3;1.2;;;;;;;9.25;100;95159.01;;;;
2020/10/29 02:47:01;;;;;;;1.3;1.2;;;;;;;9.25;100;95159.01;;;;
2020/10/29 02:48:02;;;;;;;1.3;1.2;;;;;;;9.25;100;95159.01;;;;
2020/10/29 02:49:03;;;;;;;1.3;1.2;;;;;;;9.25;100;95159.01;;;;
2020/10/29 02:50:03;;;;;;;1.3;1.2;;;;;;;9.25;100;95159.01;;;;
2020/10/29 02:51:06;;;;;;;4.95;1.35;;;;;;;9.27;100;95178.88;;;;
2020/10/29 02:52:07;;;;;;;4.95;1.35;;;;;;;9.27;100;95178.88;;;;
2020/10/29 02:53:08;;;;;;;4.95;1.35;;;;;;;9.27;100;95178.88;;;;
2020/10/29 02:54:08;;;;;;;4.95;1.35;;;;;;;9.27;100;95178.88;;;;
2020/10/29 02:55:09;;;;;;;4.95;1.35;;;;;;;9.27;100;95178.88;;;;
2020/10/29 02:56:09;;;;;;;4.95;1.35;;;;;;;9.27;100;95178.88;;;;
2020/10/29 02:57:10;;;;;;;4.95;1.35;;;;;;;9.27;100;95178.88;;;;
2020/10/29 02:58:10;;;;;;;4.95;1.35;;;;;;;9.27;100;95178.88;;;;
2020/10/29 02:59:11;;;;;;;4.95;1.35;;;;;;;9.27;100;95178.88;;;;
2020/10/29 03:00:11;;;;;;;4.95;1.35;;;;;;;9.27;100;95178.88;;;;
2020/10/29 03:01:13;;;;;;;1.5;1.2;;;;;;;9.39;100;95188.34;;;;
2020/10/29 03:02:13;;;;;;;1.5;1.2;;;;;;;9.39;100;95188.34;;;;
2020/10/29 03:03:14;;;;;;;1.5;1.2;;;;;;;9.39;100;95188.34;;;;
2020/10/29 03:04:14;;;;;;;1.5;1.2;;;;;;;9.39;100;95188.34;;;;
2020/10/29 03:05:15;;;;;;;1.5;1.2;;;;;;;9.39;100;95188.34;;;;
2020/10/29 03:06:15;;;;;;;1.5;1.2;;;;;;;9.39;100;95188.34;;;;
2020/10/29 03:07:16;;;;;;;1.5;1.2;;;;;;;9.39;100;95188.34;;;;
2020/10/29 03:08:16;;;;;;;1.5;1.2;;;;;;;9.39;100;95188.34;;;;
2020/10/29 03:09:17;;;;;;;1.5;1.2;;;;;;;9.39;100;95188.34;;;;
2020/10/29 03:10:18;;;;;;;1.5;1.2;;;;;;;9.39;100;95188.34;;;;
2020/10/29 03:11:18;;;;;;;1.5;1.2;;;;;;;9.39;100;95188.34;;;;
2020/10/29 03:12:19;;;;;;;1.4;1.2;;;;;;;9.46;100;95190.41;;;;
2020/10/29 03:13:20;;;;;;;1.4;1.2;;;;;;;9.46;100;95190.41;;;;
2020/10/29 03:14:21;;;;;;;1.4;1.2;;;;;;;9.46;100;95190.41;;;;
2020/10/29 03:15:21;;;;;;;1.4;1.2;;;;;;;9.46;100;95190.41;;;;
2020/10/29 03:16:21;;;;;;;1.4;1.2;;;;;;;9.46;100;95190.41;;;;
2020/10/29 03:17:22;;;;;;;1.4;1.2;;;;;;;9.46;100;95190.41;;;;
2020/10/29 03:18:22;;;;;;;1.4;1.2;;;;;;;9.46;100;95190.41;;;;
2020/10/29 03:19:23;;;;;;;1.4;1.2;;;;;;;9.46;100;95190.41;;;;
2020/10/29 03:20:24;;;;;;;1.4;1.2;;;;;;;9.46;100;95190.41;;;;
2020/10/29 03:21:24;;;;;;;1.4;1.2;;;;;;;9.46;100;95190.41;;;;
2020/10/29 03:22:24;;;;;;;1.4;1.2;;;;;;;9.46;100;95190.41;;;;
2020/10/29 03:23:25;;;;;;;2.35;1.1;;;;;;;9.65;100;95182.53;;;;
2020/10/29 03:24:26;;;;;;;2.35;1.1;;;;;;;9.65;100;95182.53;;;;
2020/10/29 03:25:26;;;;;;;2.35;1.1;;;;;;;9.65;100;95182.53;;;;
2020/10/29 03:26:27;;;;;;;2.35;1.1;;;;;;;9.65;100;95182.53;;;;
2020/10/29 03:27:27;;;;;;;2.35;1.1;;;;;;;9.65;100;95182.53;;;;
2020/10/29 03:28:27;;;;;;;2.35;1.1;;;;;;;9.65;100;95182.53;;;;
2020/10/29 03:29:28;;;;;;;2.35;1.1;;;;;;;9.65;100;95182.53;;;;
2020/10/29 03:30:28;;;;;;;2.35;1.1;;;;;;;9.65;100;95182.53;;;;
2020/10/29 03:31:29;;;;;;;2.35;1.1;;;;;;;9.65;100;95182.53;;;;
2020/10/29 03:32:29;;;;;;;2.35;1.1;;;;;;;9.65;100;95182.53;;;;
2020/10/29 03:33:30;;;;;;;2;1.2;;;;;;;9.76;100;95188.05;;;;
2020/10/29 03:34:30;;;;;;;2;1.2;;;;;;;9.76;100;95188.05;;;;
2020/10/29 03:35:31;;;;;;;2;1.2;;;;;;;9.76;100;95188.05;;;;
2020/10/29 03:36:31;;;;;;;2;1.2;;;;;;;9.76;100;95188.05;;;;
2020/10/29 03:37:32;;;;;;;2;1.2;;;;;;;9.76;100;95188.05;;;;
2020/10/29 03:38:32;;;;;;;2;1.2;;;;;;;9.76;100;95188.05;;;;
2020/10/29 03:39:33;;;;;;;2;1.2;;;;;;;9.76;100;95188.05;;;;
2020/10/29 03:40:33;;;;;;;2;1.2;;;;;;;9.76;100;95188.05;;;;
2020/10/29 03:41:34;;;;;;;2;1.2;;;;;;;9.76;100;95188.05;;;;
2020/10/29 03:42:34;;;;;;;2;1.2;;;;;;;9.76;100;95188.05;;;;
2020/10/29 03:43:35;;;;;;;2;1.2;;;;;;;9.76;100;95188.05;;;;
2020/10/29 03:44:35;;;;;;;1.8;1.3;;;;;;;9.9;100;95192.05;;;;
2020/10/29 03:45:36;;;;;;;1.8;1.3;;;;;;;9.9;100;95192.05;;;;
2020/10/29 03:46:36;;;;;;;1.8;1.3;;;;;;;9.9;100;95192.05;;;;
2020/10/29 03:47:37;;;;;;;1.8;1.3;;;;;;;9.9;100;95192.05;;;;
2020/10/29 03:48:37;;;;;;;1.8;1.3;;;;;;;9.9;100;95192.05;;;;
2020/10/29 03:49:38;;;;;;;1.8;1.3;;;;;;;9.9;100;95192.05;;;;
2020/10/29 03:50:38;;;;;;;1.8;1.3;;;;;;;9.9;100;95192.05;;;;
2020/10/29 03:51:39;;;;;;;1.8;1.3;;;;;;;9.9;100;95192.05;;;;
2020/10/29 03:52:39;;;;;;;1.8;1.3;;;;;;;9.9;100;95192.05;;;;
2020/10/29 03:53:40;;;;;;;1.8;1.3;;;;;;;9.9;100;95192.05;;;;
2020/10/29 03:54:40;;;;;;;1.75;1.05;;;;;;;9.96;100;95180.86;;;;
2020/10/29 03:55:41;;;;;;;1.75;1.05;;;;;;;9.96;100;95180.86;;;;
2020/10/29 03:56:41;;;;;;;1.75;1.05;;;;;;;9.96;100;95180.86;;;;
2020/10/29 03:57:43;;;;;;;1.75;1.05;;;;;;;9.96;100;95180.86;;;;
2020/10/29 03:58:43;;;;;;;1.75;1.05;;;;;;;9.96;100;95180.86;;;;
2020/10/29 03:59:43;;;;;;;1.75;1.05;;;;;;;9.96;100;95180.86;;;;
2020/10/29 04:00:44;;;;;;;1.75;1.05;;;;;;;9.96;100;95180.86;;;;
2020/10/29 04:01:44;;;;;;;1.75;1.05;;;;;;;9.96;100;95180.86;;;;
2020/10/29 04:02:45;;;;;;;1.75;1.05;;;;;;;9.96;100;95180.86;;;;
2020/10/29 04:03:45;;;;;;;1.75;1.05;;;;;;;9.96;100;95180.86;;;;
2020/10/29 04:04:46;;;;;;;1.75;1.05;;;;;;;9.96;100;95180.86;;;;
2020/10/29 04:05:46;;;;;;;2.4;1.4;;;;;;;10;100;95175.67;;;;
2020/10/29 04:06:47;;;;;;;2.4;1.4;;;;;;;10;100;95175.67;;;;
2020/10/29 04:07:47;;;;;;;2.4;1.4;;;;;;;10;100;95175.67;;;;
2020/10/29 04:08:48;;;;;;;2.4;1.4;;;;;;;10;100;95175.67;;;;
2020/10/29 04:09:48;;;;;;;2.4;1.4;;;;;;;10;100;95175.67;;;;
2020/10/29 04:10:49;;;;;;;2.4;1.4;;;;;;;10;100;95175.67;;;;
2020/10/29 04:11:49;;;;;;;2.4;1.4;;;;;;;10;100;95175.67;;;;
2020/10/29 04:12:50;;;;;;;2.4;1.4;;;;;;;10;100;95175.67;;;;
2020/10/29 04:13:50;;;;;;;2.4;1.4;;;;;;;10;100;95175.67;;;;
2020/10/29 04:14:51;;;;;;;2.4;1.4;;;;;;;10;100;95175.67;;;;
2020/10/29 04:15:51;;;;;;;1.4;0.9;;;;;;;9.99;100;95190.23;;;;
2020/10/29 04:16:52;;;;;;;1.4;0.9;;;;;;;9.99;100;95190.23;;;;
2020/10/29 04:17:53;;;;;;;1.4;0.9;;;;;;;9.99;100;95190.23;;;;
2020/10/29 04:18:53;;;;;;;1.4;0.9;;;;;;;9.99;100;95190.23;;;;
2020/10/29 04:19:54;;;;;;;1.4;0.9;;;;;;;9.99;100;95190.23;;;;
2020/10/29 04:20:54;;;;;;;1.4;0.9;;;;;;;9.99;100;95190.23;;;;
2020/10/29 04:21:55;;;;;;;1.4;0.9;;;;;;;9.99;100;95190.23;;;;
2020/10/29 04:22:55;;;;;;;1.4;0.9;;;;;;;9.99;100;95190.23;;;;
2020/10/29 04:23:57;;;;;;;1.4;0.9;;;;;;;9.99;100;95190.23;;;;
2020/10/29 04:24:58;;;;;;;1.4;0.9;;;;;;;9.99;100;95190.23;;;;
2020/10/29 04:25:58;;;;;;;1.4;0.9;;;;;;;9.99;100;95190.23;;;;
2020/10/29 04:26:59;;;;;;;2.25;1.2;;;;;;;10.07;100;95190.83;;;;
2020/10/29 04:27:59;;;;;;;2.25;1.2;;;;;;;10.07;100;95190.83;;;;
2020/10/29 04:29:00;;;;;;;2.25;1.2;;;;;;;10.07;100;95190.83;;;;
2020/10/29 04:30:00;;;;;;;2.25;1.2;;;;;;;10.07;100;95190.83;;;;
2020/10/29 04:31:01;;;;;;;2.25;1.2;;;;;;;10.07;100;95190.83;;;;
2020/10/29 04:32:01;;;;;;;2.25;1.2;;;;;;;10.07;100;95190.83;;;;
2020/10/29 04:33:02;;;;;;;2.25;1.2;;;;;;;10.07;100;95190.83;;;;
2020/10/29 04:34:02;;;;;;;2.25;1.2;;;;;;;10.07;100;95190.83;;;;
2020/10/29 04:35:03;;;;;;;2.25;1.2;;;;;;;10.07;100;95190.83;;;;
2020/10/29 04:36:04;;;;;;;2.25;1.2;;;;;;;10.07;100;95190.83;;;;
2020/10/29 04:37:04;;;;;;;2.25;1.2;;;;;;;10.07;100;95190.83;;;;
2020/10/29 04:38:05;;;;;;;2.25;1.2;;;;;;;10.06;100;95197.27;;;;
2020/10/29 04:39:05;;;;;;;2.25;1.2;;;;;;;10.06;100;95197.27;;;;
2020/10/29 04:40:07;;;;;;;2.25;1.2;;;;;;;10.06;100;95197.27;;;;
2020/10/29 04:41:08;;;;;;;2.25;1.2;;;;;;;10.06;100;95197.27;;;;
2020/10/29 04:42:09;;;;;;;2.25;1.2;;;;;;;10.06;100;95197.27;;;;
2020/10/29 04:43:09;;;;;;;2.25;1.2;;;;;;;10.06;100;95197.27;;;;
2020/10/29 04:44:10;;;;;;;2.25;1.2;;;;;;;10.06;100;95197.27;;;;
2020/10/29 04:45:11;;;;;;;2.25;1.2;;;;;;;10.06;100;95197.27;;;;
2020/10/29 04:46:12;;;;;;;2.25;1.2;;;;;;;10.06;100;95197.27;;;;
2020/10/29 04:47:13;;;;;;;2.25;1.2;;;;;;;10.06;100;95197.27;;;;
2020/10/29 04:48:14;;;;;;;1.7;1.1;;;;;;;10.12;100;95203.52;;;;
2020/10/29 04:49:15;;;;;;;1.7;1.1;;;;;;;10.12;100;95203.52;;;;
2020/10/29 04:50:15;;;;;;;1.7;1.1;;;;;;;10.12;100;95203.52;;;;
2020/10/29 04:51:16;;;;;;;1.7;1.1;;;;;;;10.12;100;95203.52;;;;
2020/10/29 04:52:16;;;;;;;1.7;1.1;;;;;;;10.12;100;95203.52;;;;
2020/10/29 04:53:16;;;;;;;1.7;1.1;;;;;;;10.12;100;95203.52;;;;
2020/10/29 04:54:17;;;;;;;1.7;1.1;;;;;;;10.12;100;95203.52;;;;
2020/10/29 04:55:18;;;;;;;1.7;1.1;;;;;;;10.12;100;95203.52;;;;
2020/10/29 04:56:20;;;;;;;1.7;1.1;;;;;;;10.12;100;95203.52;;;;
2020/10/29 04:57:21;;;;;;;1.7;1.1;;;;;;;10.12;100;95203.52;;;;
2020/10/29 04:58:23;;;;;;;1.7;1.1;;;;;;;10.12;100;95203.52;;;;
2020/10/29 04:59:24;;;;;;;1.35;1;;;;;;;10.1;100;95225.86;;;;
2020/10/29 05:00:24;;;;;;;1.35;1;;;;;;;10.1;100;95225.86;;;;
2020/10/29 05:01:27;;;;;;;1.35;1;;;;;;;10.1;100;95225.86;;;;
2020/10/29 05:02:28;;;;;;;1.35;1;;;;;;;10.1;100;95225.86;;;;
2020/10/29 05:03:28;;;;;;;1.35;1;;;;;;;10.1;100;95225.86;;;;
2020/10/29 05:04:29;;;;;;;1.35;1;;;;;;;10.1;100;95225.86;;;;
2020/10/29 05:05:29;;;;;;;1.35;1;;;;;;;10.1;100;95225.86;;;;
2020/10/29 05:06:31;;;;;;;1.35;1;;;;;;;10.1;100;95225.86;;;;
2020/10/29 05:07:33;;;;;;;1.35;1;;;;;;;10.1;100;95225.86;;;;
2020/10/29 05:08:33;;;;;;;1.35;1;;;;;;;10.1;100;95225.86;;;;
2020/10/29 05:09:34;;;;;;;1.8;1.35;;;;;;;10.14;100;95233.37;;;;
2020/10/29 05:10:41;;;;;;;1.8;1.35;;;;;;;10.14;100;95233.37;;;;
2020/10/29 05:11:41;;;;;;;1.8;1.35;;;;;;;10.14;100;95233.37;;;;
2020/10/29 05:12:44;;;;;;;1.8;1.35;;;;;;;10.14;100;95233.37;;;;
2020/10/29 05:13:44;;;;;;;1.8;1.35;;;;;;;10.14;100;95233.37;;;;
2020/10/29 05:14:45;;;;;;;1.8;1.35;;;;;;;10.14;100;95233.37;;;;
2020/10/29 05:15:49;;;;;;;1.8;1.35;;;;;;;10.14;100;95233.37;;;;
2020/10/29 05:16:50;;;;;;;1.8;1.35;;;;;;;10.14;100;95233.37;;;;
2020/10/29 05:17:51;;;;;;;1.8;1.35;;;;;;;10.14;100;95233.37;;;;
2020/10/29 05:18:52;;;;;;;1.8;1.35;;;;;;;10.14;100;95233.37;;;;
2020/10/29 05:19:52;;;;;;;3.9;1.2;;;;;;;10.02;100;95230.21;;;;
2020/10/29 05:20:53;;;;;;;3.9;1.2;;;;;;;10.02;100;95230.21;;;;
2020/10/29 05:21:53;;;;;;;3.9;1.2;;;;;;;10.02;100;95230.21;;;;
2020/10/29 05:22:54;;;;;;;3.9;1.2;;;;;;;10.02;100;95230.21;;;;
2020/10/29 05:23:56;;;;;;;3.9;1.2;;;;;;;10.02;100;95230.21;;;;
2020/10/29 05:24:57;;;;;;;3.9;1.2;;;;;;;10.02;100;95230.21;;;;
2020/10/29 05:25:58;;;;;;;3.9;1.2;;;;;;;10.02;100;95230.21;;;;
2020/10/29 05:27:02;;;;;;;3.9;1.2;;;;;;;10.02;100;95230.21;;;;
2020/10/29 05:28:05;;;;;;;3.9;1.2;;;;;;;10.02;100;95230.21;;;;
2020/10/29 05:29:05;;;;;;;3.9;1.2;;;;;;;10.02;100;95230.21;;;;
2020/10/29 05:30:06;;;;;;;3.9;1.2;;;;;;;10.02;100;95230.21;;;;
2020/10/29 05:31:06;;;;;;;1.9;1.2;;;;;;;9.9;100;95245.57;;;;
2020/10/29 05:32:07;;;;;;;1.9;1.2;;;;;;;9.9;100;95245.57;;;;
2020/10/29 05:33:07;;;;;;;1.9;1.2;;;;;;;9.9;100;95245.57;;;;
2020/10/29 05:34:09;;;;;;;1.9;1.2;;;;;;;9.9;100;95245.57;;;;
2020/10/29 05:35:13;;;;;;;1.9;1.2;;;;;;;9.9;100;95245.57;;;;
2020/10/29 05:36:13;;;;;;;1.9;1.2;;;;;;;9.9;100;95245.57;;;;
2020/10/29 05:37:14;;;;;;;1.9;1.2;;;;;;;9.9;100;95245.57;;;;
2020/10/29 05:38:16;;;;;;;1.9;1.2;;;;;;;9.9;100;95245.57;;;;
2020/10/29 05:39:19;;;;;;;1.9;1.2;;;;;;;9.9;100;95245.57;;;;
2020/10/29 05:40:20;;;;;;;1.9;1.2;;;;;;;9.9;100;95245.57;;;;
2020/10/29 05:41:22;;;;;;;1.85;1.2;;;;;;;9.71;100;95246.31;;;;
2020/10/29 05:42:22;;;;;;;1.85;1.2;;;;;;;9.71;100;95246.31;;;;
2020/10/29 05:43:24;;;;;;;1.85;1.2;;;;;;;9.71;100;95246.31;;;;
2020/10/29 05:44:25;;;;;;;1.85;1.2;;;;;;;9.71;100;95246.31;;;;
2020/10/29 05:45:25;;;;;;;1.85;1.2;;;;;;;9.71;100;95246.31;;;;
2020/10/29 05:46:26;;;;;;;1.85;1.2;;;;;;;9.71;100;95246.31;;;;
2020/10/29 05:47:38;;;;;;;1.85;1.2;;;;;;;9.71;100;95246.31;;;;
2020/10/29 05:48:38;;;;;;;1.85;1.2;;;;;;;9.71;100;95246.31;;;;
2020/10/29 05:49:48;;;;;;;1.85;1.2;;;;;;;9.71;100;95246.31;;;;
2020/10/29 05:50:48;;;;;;;1.85;1.2;;;;;;;9.71;100;95246.31;;;;
2020/10/29 05:51:50;;;;;;;1.6;1.2;;;;;;;9.63;100;95256.48;;;;
2020/10/29 05:52:50;;;;;;;1.6;1.2;;;;;;;9.63;100;95256.48;;;;
2020/10/29 05:53:53;;;;;;;1.6;1.2;;;;;;;9.63;100;95256.48;;;;
2020/10/29 05:54:54;;;;;;;1.6;1.2;;;;;;;9.63;100;95256.48;;;;
2020/10/29 05:55:56;;;;;;;1.6;1.2;;;;;;;9.63;100;95256.48;;;;
2020/10/29 05:56:57;;;;;;;1.6;1.2;;;;;;;9.63;100;95256.48;;;;
2020/10/29 05:58:04;;;;;;;1.6;1.2;;;;;;;9.63;100;95256.48;;;;
2020/10/29 05:59:04;;;;;;;1.6;1.2;;;;;;;9.63;100;95256.48;;;;
2020/10/29 06:00:13;;;;;;;1.6;1.2;;;;;;;9.63;100;95256.48;;;;
2020/10/29 06:01:14;;;;;;;1.6;1.2;;;;;;;9.63;100;95256.48;;;;
2020/10/29 06:02:14;;;;;;;1.6;1.2;;;;;;;9.63;100;95256.48;;;;
2020/10/29 06:03:15;;;;;;;1.35;1.2;;;;;;;9.53;100;95276.86;;;;
2020/10/29 06:04:15;;;;;;;1.35;1.2;;;;;;;9.53;100;95276.86;;;;
2020/10/29 06:05:17;;;;;;;1.35;1.2;;;;;;;9.53;100;95276.86;;;;
2020/10/29 06:06:22;;;;;;;1.35;1.2;;;;;;;9.53;100;95276.86;;;;
2020/10/29 06:07:23;;;;;;;1.35;1.2;;;;;;;9.53;100;95276.86;;;;
2020/10/29 06:08:32;;;;;;;1.35;1.2;;;;;;;9.53;100;95276.86;;;;
2020/10/29 06:09:32;;;;;;;1.35;1.2;;;;;;;9.53;100;95276.86;;;;
2020/10/29 06:10:33;;;;;;;1.35;1.2;;;;;;;9.53;100;95276.86;;;;
2020/10/29 06:11:33;;;;;;;1.35;1.2;;;;;;;9.53;100;95276.86;;;;
2020/10/29 06:12:45;;;;;;;1.35;1.2;;;;;;;9.53;100;95276.86;;;;
2020/10/29 06:13:50;;;;;;;1.8;1.25;;;;;;;9.52;100;95294.58;;;;
2020/10/29 06:14:50;;;;;;;1.8;1.25;;;;;;;9.52;100;95294.58;;;;
2020/10/29 06:16:07;;;;;;;1.8;1.25;;;;;;;9.52;100;95294.58;;;;
2020/10/29 06:17:08;;;;;;;1.8;1.25;;;;;;;9.52;100;95294.58;;;;
2020/10/29 06:18:09;;;;;;;1.8;1.25;;;;;;;9.52;100;95294.58;;;;
2020/10/29 06:19:09;;;;;;;1.8;1.25;;;;;;;9.52;100;95294.58;;;;
2020/10/29 06:20:12;;;;;;;1.8;1.25;;;;;;;9.52;100;95294.58;;;;
2020/10/29 06:21:13;;;;;;;1.8;1.25;;;;;;;9.52;100;95294.58;;;;
2020/10/29 06:22:15;;;;;;;1.8;1.25;;;;;;;9.52;100;95294.58;;;;
2020/10/29 06:23:16;;;;;;;1.8;1.25;;;;;;;9.52;100;95294.58;;;;
2020/10/29 06:24:16;;;;;;;2.5;1.4;;;;;;;9.44;100;95310.16;;;;
2020/10/29 06:25:17;;;;;;;2.5;1.4;;;;;;;9.44;100;95310.16;;;;
2020/10/29 06:26:17;;;;;;;2.5;1.4;;;;;;;9.44;100;95310.16;;;;